sensor_id;sensor_type;location;lat;lon;timestamp;pressure;altitude;pressure_sealevel;temperature;humidity
63088;BME280;49173;43.164;27.786;2024-01-07T00:00:06;99441.34;;;13.46;81.90
63088;BME280;49173;43.164;27.786;2024-01-07T00:02:32;99445.66;;;13.49;82.03
63088;BME280;49173;43.164;27.786;2024-01-07T00:04:58;99422.38;;;13.48;81.74
63088;BME280;49173;43.164;27.786;2024-01-07T00:07:24;99425.94;;;13.48;81.89
63088;BME280;49173;43.164;27.786;2024-01-07T00:09:50;99417.00;;;13.48;81.84
63088;BME280;49173;43.164;27.786;2024-01-07T00:12:17;99406.19;;;13.48;81.87
63088;BME280;49173;43.164;27.786;2024-01-07T00:14:42;99405.22;;;13.49;81.47
63088;BME280;49173;43.164;27.786;2024-01-07T00:17:10;99403.50;;;13.48;81.34
63088;BME280;49173;43.164;27.786;2024-01-07T00:19:36;99402.53;;;13.49;81.45
63088;BME280;49173;43.164;27.786;2024-01-07T00:22:04;99384.63;;;13.48;81.46
63088;BME280;49173;43.164;27.786;2024-01-07T00:24:30;99386.59;;;13.45;81.01
63088;BME280;49173;43.164;27.786;2024-01-07T00:26:56;99382.94;;;13.46;80.67
63088;BME280;49173;43.164;27.786;2024-01-07T00:29:22;99391.97;;;13.45;80.97
63088;BME280;49173;43.164;27.786;2024-01-07T00:31:47;99388.69;;;13.42;80.92
63088;BME280;49173;43.164;27.786;2024-01-07T00:34:13;99393.59;;;13.37;81.18
63088;BME280;49173;43.164;27.786;2024-01-07T00:36:39;99384.53;;;13.38;80.89
63088;BME280;49173;43.164;27.786;2024-01-07T00:39:05;99378.03;;;13.40;80.54
63088;BME280;49173;43.164;27.786;2024-01-07T00:41:31;99383.44;;;13.40;80.30
63088;BME280;49173;43.164;27.786;2024-01-07T00:43:57;99374.50;;;13.40;80.37
63088;BME280;49173;43.164;27.786;2024-01-07T00:46:22;99392.59;;;13.38;80.16
63088;BME280;49173;43.164;27.786;2024-01-07T00:48:48;99384.91;;;13.33;80.31
63088;BME280;49173;43.164;27.786;2024-01-07T00:51:14;99396.06;;;13.29;80.60
63088;BME280;49173;43.164;27.786;2024-01-07T00:53:40;99402.56;;;13.26;80.42
63088;BME280;49173;43.164;27.786;2024-01-07T00:56:06;99397.28;;;13.25;80.46
63088;BME280;49173;43.164;27.786;2024-01-07T00:58:32;99396.69;;;13.21;80.28
63088;BME280;49173;43.164;27.786;2024-01-07T01:00:58;99390.31;;;13.22;80.23
63088;BME280;49173;43.164;27.786;2024-01-07T01:03:26;99406.47;;;13.22;80.49
63088;BME280;49173;43.164;27.786;2024-01-07T01:05:52;99392.03;;;13.23;80.21
63088;BME280;49173;43.164;27.786;2024-01-07T01:08:18;99387.63;;;13.22;80.28
63088;BME280;49173;43.164;27.786;2024-01-07T01:10:44;99376.00;;;13.22;80.26
63088;BME280;49173;43.164;27.786;2024-01-07T01:13:09;99366.78;;;13.24;80.28
63088;BME280;49173;43.164;27.786;2024-01-07T01:15:35;99354.78;;;13.28;80.43
63088;BME280;49173;43.164;27.786;2024-01-07T01:18:01;99357.13;;;13.33;80.22
63088;BME280;49173;43.164;27.786;2024-01-07T01:20:27;99370.94;;;13.39;79.47
63088;BME280;49173;43.164;27.786;2024-01-07T01:22:53;99350.25;;;13.40;79.20
63088;BME280;49173;43.164;27.786;2024-01-07T01:25:19;99358.19;;;13.41;78.84
63088;BME280;49173;43.164;27.786;2024-01-07T01:27:46;99366.00;;;13.44;78.73
63088;BME280;49173;43.164;27.786;2024-01-07T01:30:12;99359.91;;;13.42;78.58
63088;BME280;49173;43.164;27.786;2024-01-07T01:32:39;99362.59;;;13.42;78.51
63088;BME280;49173;43.164;27.786;2024-01-07T01:35:05;99356.47;;;13.40;78.59
63088;BME280;49173;43.164;27.786;2024-01-07T01:37:31;99371.91;;;13.38;78.37
63088;BME280;49173;43.164;27.786;2024-01-07T01:39:59;99361.25;;;13.37;78.22
63088;BME280;49173;43.164;27.786;2024-01-07T01:42:25;99355.16;;;13.35;78.41
63088;BME280;49173;43.164;27.786;2024-01-07T01:44:50;99358.97;;;13.32;78.17
63088;BME280;49173;43.164;27.786;2024-01-07T01:47:17;99366.28;;;13.30;78.52
63088;BME280;49173;43.164;27.786;2024-01-07T01:49:45;99379.31;;;13.25;78.57
63088;BME280;49173;43.164;27.786;2024-01-07T01:52:11;99381.25;;;13.23;78.57
63088;BME280;49173;43.164;27.786;2024-01-07T01:54:38;99375.84;;;13.23;78.48
63088;BME280;49173;43.164;27.786;2024-01-07T01:57:05;99371.44;;;13.22;78.45
63088;BME280;49173;43.164;27.786;2024-01-07T01:59:32;99361.75;;;13.19;78.49
63088;BME280;49173;43.164;27.786;2024-01-07T02:02:00;99380.63;;;13.19;78.36
63088;BME280;49173;43.164;27.786;2024-01-07T02:04:26;99369.22;;;13.16;78.20
63088;BME280;49173;43.164;27.786;2024-01-07T02:06:53;99370.34;;;13.13;78.25
63088;BME280;49173;43.164;27.786;2024-01-07T02:09:19;99387.22;;;13.15;78.01
63088;BME280;49173;43.164;27.786;2024-01-07T02:12:00;99381.97;;;13.14;78.12
63088;BME280;49173;43.164;27.786;2024-01-07T02:14:26;99382.34;;;13.09;78.36
63088;BME280;49173;43.164;27.786;2024-01-07T02:16:52;99388.13;;;13.05;78.04
63088;BME280;49173;43.164;27.786;2024-01-07T02:19:20;99381.88;;;13.04;78.16
63088;BME280;49173;43.164;27.786;2024-01-07T02:21:47;99380.13;;;13.03;78.01
63088;BME280;49173;43.164;27.786;2024-01-07T02:24:17;99376.97;;;12.98;78.13
63088;BME280;49173;43.164;27.786;2024-01-07T02:26:42;99367.78;;;12.89;78.46
63088;BME280;49173;43.164;27.786;2024-01-07T02:29:08;99368.03;;;12.86;78.71
63088;BME280;49173;43.164;27.786;2024-01-07T02:31:34;99360.09;;;12.85;78.70
63088;BME280;49173;43.164;27.786;2024-01-07T02:34:00;99337.06;;;12.81;78.99
63088;BME280;49173;43.164;27.786;2024-01-07T02:36:25;99339.91;;;12.79;78.87
63088;BME280;49173;43.164;27.786;2024-01-07T02:38:51;99338.69;;;12.72;79.03
63088;BME280;49173;43.164;27.786;2024-01-07T02:41:17;99337.19;;;12.68;79.22
63088;BME280;49173;43.164;27.786;2024-01-07T02:43:43;99333.06;;;12.64;79.14
63088;BME280;49173;43.164;27.786;2024-01-07T02:46:08;99329.72;;;12.60;79.25
63088;BME280;49173;43.164;27.786;2024-01-07T02:48:34;99339.06;;;12.56;79.75
63088;BME280;49173;43.164;27.786;2024-01-07T02:51:00;99341.13;;;12.53;79.82
63088;BME280;49173;43.164;27.786;2024-01-07T02:53:28;99342.34;;;12.49;79.96
63088;BME280;49173;43.164;27.786;2024-01-07T02:55:54;99344.19;;;12.48;80.21
63088;BME280;49173;43.164;27.786;2024-01-07T02:58:20;99327.53;;;12.43;79.84
63088;BME280;49173;43.164;27.786;2024-01-07T03:00:46;99336.94;;;12.37;80.30
63088;BME280;49173;43.164;27.786;2024-01-07T03:03:12;99334.59;;;12.33;80.51
63088;BME280;49173;43.164;27.786;2024-01-07T03:05:37;99325.94;;;12.29;80.83
63088;BME280;49173;43.164;27.786;2024-01-07T03:08:03;99329.59;;;12.28;81.21
63088;BME280;49173;43.164;27.786;2024-01-07T03:10:29;99327.78;;;12.29;81.04
63088;BME280;49173;43.164;27.786;2024-01-07T03:12:55;99320.69;;;12.28;80.92
63088;BME280;49173;43.164;27.786;2024-01-07T03:15:21;99316.63;;;12.22;81.41
63088;BME280;49173;43.164;27.786;2024-01-07T03:17:46;99315.78;;;12.22;80.96
63088;BME280;49173;43.164;27.786;2024-01-07T03:20:12;99311.59;;;12.18;81.42
63088;BME280;49173;43.164;27.786;2024-01-07T03:22:38;99319.81;;;12.16;81.66
63088;BME280;49173;43.164;27.786;2024-01-07T03:25:04;99317.25;;;12.15;81.39
63088;BME280;49173;43.164;27.786;2024-01-07T03:27:30;99309.31;;;12.13;81.65
63088;BME280;49173;43.164;27.786;2024-01-07T03:29:56;99305.75;;;12.13;81.76
63088;BME280;49173;43.164;27.786;2024-01-07T03:32:21;99300.47;;;12.11;81.80
63088;BME280;49173;43.164;27.786;2024-01-07T03:34:47;99304.00;;;12.12;81.78
63088;BME280;49173;43.164;27.786;2024-01-07T03:37:13;99295.22;;;12.09;81.86
63088;BME280;49173;43.164;27.786;2024-01-07T03:39:39;99295.47;;;12.06;81.63
63088;BME280;49173;43.164;27.786;2024-01-07T03:42:05;99295.56;;;12.05;81.56
63088;BME280;49173;43.164;27.786;2024-01-07T03:44:37;99290.94;;;12.07;81.16
63088;BME280;49173;43.164;27.786;2024-01-07T03:47:04;99292.88;;;12.05;81.00
63088;BME280;49173;43.164;27.786;2024-01-07T03:49:30;99290.94;;;12.07;80.64
63088;BME280;49173;43.164;27.786;2024-01-07T03:51:56;99288.47;;;12.04;80.68
63088;BME280;49173;43.164;27.786;2024-01-07T03:54:22;99292.16;;;12.03;80.83
63088;BME280;49173;43.164;27.786;2024-01-07T03:56:48;99286.16;;;11.99;80.99
63088;BME280;49173;43.164;27.786;2024-01-07T03:59:14;99283.47;;;11.99;81.13
63088;BME280;49173;43.164;27.786;2024-01-07T04:01:39;99282.84;;;11.96;81.46
63088;BME280;49173;43.164;27.786;2024-01-07T04:04:05;99278.69;;;11.92;81.28
63088;BME280;49173;43.164;27.786;2024-01-07T04:06:31;99277.84;;;11.91;81.13
63088;BME280;49173;43.164;27.786;2024-01-07T04:08:57;99276.00;;;11.92;80.94
63088;BME280;49173;43.164;27.786;2024-01-07T04:11:22;99277.84;;;11.91;81.06
63088;BME280;49173;43.164;27.786;2024-01-07T04:13:48;99274.41;;;11.89;80.93
63088;BME280;49173;43.164;27.786;2024-01-07T04:16:20;99277.94;;;11.90;80.80
63088;BME280;49173;43.164;27.786;2024-01-07T04:18:47;99272.56;;;11.90;80.51
63088;BME280;49173;43.164;27.786;2024-01-07T04:21:12;99266.22;;;11.91;80.41
63088;BME280;49173;43.164;27.786;2024-01-07T04:23:39;99256.44;;;11.90;80.12
63088;BME280;49173;43.164;27.786;2024-01-07T04:26:09;99254.00;;;11.87;79.80
63088;BME280;49173;43.164;27.786;2024-01-07T04:28:35;99254.97;;;11.86;79.57
63088;BME280;49173;43.164;27.786;2024-01-07T04:31:01;99259.59;;;11.83;78.89
63088;BME280;49173;43.164;27.786;2024-01-07T04:33:27;99246.06;;;11.85;77.55
63088;BME280;49173;43.164;27.786;2024-01-07T04:35:52;99243.00;;;11.90;76.65
63088;BME280;49173;43.164;27.786;2024-01-07T04:38:23;99245.06;;;11.97;75.67
63088;BME280;49173;43.164;27.786;2024-01-07T04:40:49;99243.53;;;12.06;75.42
63088;BME280;49173;43.164;27.786;2024-01-07T04:43:14;99238.75;;;12.09;74.62
63088;BME280;49173;43.164;27.786;2024-01-07T04:45:40;99237.41;;;12.15;74.62
63088;BME280;49173;43.164;27.786;2024-01-07T04:48:06;99246.19;;;12.17;74.59
63088;BME280;49173;43.164;27.786;2024-01-07T04:50:32;99235.31;;;12.19;74.38
63088;BME280;49173;43.164;27.786;2024-01-07T04:52:58;99248.88;;;12.17;74.53
63088;BME280;49173;43.164;27.786;2024-01-07T04:55:23;99246.19;;;12.17;74.52
63088;BME280;49173;43.164;27.786;2024-01-07T04:57:49;99248.03;;;12.17;74.29
63088;BME280;49173;43.164;27.786;2024-01-07T05:00:16;99239.84;;;12.18;74.32
63088;BME280;49173;43.164;27.786;2024-01-07T05:02:41;99236.28;;;12.18;74.45
63088;BME280;49173;43.164;27.786;2024-01-07T05:05:08;99233.50;;;12.19;74.51
63088;BME280;49173;43.164;27.786;2024-01-07T05:07:34;99228.97;;;12.20;74.50
63088;BME280;49173;43.164;27.786;2024-01-07T05:10:00;99222.84;;;12.18;74.75
63088;BME280;49173;43.164;27.786;2024-01-07T05:12:26;99222.13;;;12.16;74.97
63088;BME280;49173;43.164;27.786;2024-01-07T05:14:52;99225.91;;;12.13;75.19
63088;BME280;49173;43.164;27.786;2024-01-07T05:17:18;99225.28;;;12.09;75.11
63088;BME280;49173;43.164;27.786;2024-01-07T05:19:43;99229.94;;;12.07;75.12
63088;BME280;49173;43.164;27.786;2024-01-07T05:22:09;99210.41;;;12.05;75.22
63088;BME280;49173;43.164;27.786;2024-01-07T05:24:37;99198.88;;;12.03;75.38
63088;BME280;49173;43.164;27.786;2024-01-07T05:27:06;99202.69;;;12.01;75.23
63088;BME280;49173;43.164;27.786;2024-01-07T05:29:32;99200.13;;;11.99;75.58
63088;BME280;49173;43.164;27.786;2024-01-07T05:32:01;99197.53;;;11.98;75.35
63088;BME280;49173;43.164;27.786;2024-01-07T05:34:28;99187.53;;;12.00;75.39
63088;BME280;49173;43.164;27.786;2024-01-07T05:36:54;99192.16;;;11.98;75.51
63088;BME280;49173;43.164;27.786;2024-01-07T05:39:20;99194.00;;;11.97;75.50
63088;BME280;49173;43.164;27.786;2024-01-07T05:41:46;99205.72;;;11.96;75.24
63088;BME280;49173;43.164;27.786;2024-01-07T05:44:12;99202.41;;;12.04;75.14
63088;BME280;49173;43.164;27.786;2024-01-07T05:46:41;99191.66;;;12.04;75.14
63088;BME280;49173;43.164;27.786;2024-01-07T05:49:11;99189.09;;;12.02;75.29
63088;BME280;49173;43.164;27.786;2024-01-07T05:51:41;99183.84;;;12.01;75.25
63088;BME280;49173;43.164;27.786;2024-01-07T05:54:10;99177.75;;;11.99;75.50
63088;BME280;49173;43.164;27.786;2024-01-07T05:56:40;99173.09;;;12.01;75.80
63088;BME280;49173;43.164;27.786;2024-01-07T05:59:10;99170.41;;;12.01;75.73
63088;BME280;49173;43.164;27.786;2024-01-07T06:01:37;99168.72;;;12.00;76.16
63088;BME280;49173;43.164;27.786;2024-01-07T06:04:06;99175.06;;;11.99;76.11
63088;BME280;49173;43.164;27.786;2024-01-07T06:06:34;99155.25;;;12.00;75.38
63088;BME280;49173;43.164;27.786;2024-01-07T06:09:01;99156.72;;;12.04;75.97
63088;BME280;49173;43.164;27.786;2024-01-07T06:11:31;99157.56;;;12.04;75.88
63088;BME280;49173;43.164;27.786;2024-01-07T06:14:00;99159.53;;;12.02;76.00
63088;BME280;49173;43.164;27.786;2024-01-07T06:16:26;99152.56;;;12.00;76.53
63088;BME280;49173;43.164;27.786;2024-01-07T06:18:58;99155.25;;;12.00;76.54
63088;BME280;49173;43.164;27.786;2024-01-07T06:21:28;99148.63;;;12.04;76.25
63088;BME280;49173;43.164;27.786;2024-01-07T06:23:54;99160.25;;;12.04;75.65
63088;BME280;49173;43.164;27.786;2024-01-07T06:26:27;99152.94;;;12.06;75.65
63088;BME280;49173;43.164;27.786;2024-01-07T06:28:58;99147.44;;;12.08;75.97
63088;BME280;49173;43.164;27.786;2024-01-07T06:31:28;99154.50;;;12.09;75.78
63088;BME280;49173;43.164;27.786;2024-01-07T06:33:55;99182.13;;;12.11;75.95
63088;BME280;49173;43.164;27.786;2024-01-07T06:36:22;99162.59;;;12.09;76.15
63088;BME280;49173;43.164;27.786;2024-01-07T06:38:52;99149.41;;;12.06;76.50
63088;BME280;49173;43.164;27.786;2024-01-07T06:41:19;99147.16;;;12.11;76.27
63088;BME280;49173;43.164;27.786;2024-01-07T06:43:48;99141.06;;;12.09;76.32
63088;BME280;49173;43.164;27.786;2024-01-07T06:46:15;99150.63;;;12.13;76.08
63088;BME280;49173;43.164;27.786;2024-01-07T06:48:44;99142.28;;;12.16;75.65
63088;BME280;49173;43.164;27.786;2024-01-07T06:51:14;99144.13;;;12.16;75.80
63088;BME280;49173;43.164;27.786;2024-01-07T06:53:41;99127.00;;;12.17;76.04
63088;BME280;49173;43.164;27.786;2024-01-07T06:56:10;99120.41;;;12.21;75.87
63088;BME280;49173;43.164;27.786;2024-01-07T06:58:39;99100.59;;;12.22;75.23
63088;BME280;49173;43.164;27.786;2024-01-07T07:01:11;99097.53;;;12.26;75.23
63088;BME280;49173;43.164;27.786;2024-01-07T07:03:42;99085.78;;;12.27;75.24
63088;BME280;49173;43.164;27.786;2024-01-07T07:06:11;99082.25;;;12.27;75.02
63088;BME280;49173;43.164;27.786;2024-01-07T07:08:41;99069.88;;;12.24;75.11
63088;BME280;49173;43.164;27.786;2024-01-07T07:11:10;99065.25;;;12.26;73.57
63088;BME280;49173;43.164;27.786;2024-01-07T07:13:38;99057.03;;;12.28;73.54
63088;BME280;49173;43.164;27.786;2024-01-07T07:16:12;99051.53;;;12.29;73.21
63088;BME280;49173;43.164;27.786;2024-01-07T07:18:38;99030.00;;;12.29;73.29
63088;BME280;49173;43.164;27.786;2024-01-07T07:21:07;99021.81;;;12.31;72.81
63088;BME280;49173;43.164;27.786;2024-01-07T07:23:33;99014.59;;;12.31;72.84
63088;BME280;49173;43.164;27.786;2024-01-07T07:26:05;99033.41;;;12.31;72.99
63088;BME280;49173;43.164;27.786;2024-01-07T07:28:38;99034.16;;;12.33;73.50
63088;BME280;49173;43.164;27.786;2024-01-07T07:31:10;99040.25;;;12.35;72.43
63088;BME280;49173;43.164;27.786;2024-01-07T07:33:42;99040.84;;;12.39;72.69
63088;BME280;49173;43.164;27.786;2024-01-07T07:36:10;99030.81;;;12.41;72.42
63088;BME280;49173;43.164;27.786;2024-01-07T07:38:41;99051.38;;;12.42;72.72
63088;BME280;49173;43.164;27.786;2024-01-07T07:41:08;99056.00;;;12.40;72.62
63088;BME280;49173;43.164;27.786;2024-01-07T07:43:36;99078.13;;;12.44;72.50
63088;BME280;49173;43.164;27.786;2024-01-07T07:46:03;99077.88;;;12.47;71.86
63088;BME280;49173;43.164;27.786;2024-01-07T07:48:32;99076.91;;;12.48;72.01
63088;BME280;49173;43.164;27.786;2024-01-07T07:50:59;99069.44;;;12.51;71.92
63088;BME280;49173;43.164;27.786;2024-01-07T07:53:26;99082.50;;;12.56;71.25
63088;BME280;49173;43.164;27.786;2024-01-07T07:55:55;99086.78;;;12.58;70.87
63088;BME280;49173;43.164;27.786;2024-01-07T07:58:24;99094.34;;;12.64;70.87
63088;BME280;49173;43.164;27.786;2024-01-07T08:00:53;99080.88;;;12.64;70.25
63088;BME280;49173;43.164;27.786;2024-01-07T08:03:22;99066.56;;;12.64;70.31
63088;BME280;49173;43.164;27.786;2024-01-07T08:05:54;99055.66;;;12.65;69.89
63088;BME280;49173;43.164;27.786;2024-01-07T08:08:20;99061.03;;;12.65;69.51
63088;BME280;49173;43.164;27.786;2024-01-07T08:10:48;99041.22;;;12.67;69.26
63088;BME280;49173;43.164;27.786;2024-01-07T08:13:17;99048.31;;;12.68;69.72
63088;BME280;49173;43.164;27.786;2024-01-07T08:15:43;99053.59;;;12.69;69.74
63088;BME280;49173;43.164;27.786;2024-01-07T08:18:09;99043.66;;;12.70;69.66
63088;BME280;49173;43.164;27.786;2024-01-07T08:20:39;99047.06;;;12.72;69.75
63088;BME280;49173;43.164;27.786;2024-01-07T08:23:11;99050.34;;;12.75;69.98
63088;BME280;49173;43.164;27.786;2024-01-07T08:25:41;99059.69;;;12.71;69.78
63088;BME280;49173;43.164;27.786;2024-01-07T08:28:07;99067.38;;;12.76;69.08
63088;BME280;49173;43.164;27.786;2024-01-07T08:30:37;99049.63;;;12.73;69.01
63088;BME280;49173;43.164;27.786;2024-01-07T08:33:08;99050.22;;;12.77;69.27
63088;BME280;49173;43.164;27.786;2024-01-07T08:35:37;99055.47;;;12.78;69.30
63088;BME280;49173;43.164;27.786;2024-01-07T08:38:04;99045.56;;;12.79;69.39
63088;BME280;49173;43.164;27.786;2024-01-07T08:40:48;99062.09;;;12.74;69.86
63088;BME280;49173;43.164;27.786;2024-01-07T08:43:18;99058.69;;;12.72;70.31
63088;BME280;49173;43.164;27.786;2024-01-07T08:45:47;99027.38;;;12.71;70.59
63088;BME280;49173;43.164;27.786;2024-01-07T08:48:20;99030.22;;;12.70;70.87
63088;BME280;49173;43.164;27.786;2024-01-07T08:50:46;99037.94;;;12.63;71.76
63088;BME280;49173;43.164;27.786;2024-01-07T08:53:12;99035.13;;;12.64;72.07
63088;BME280;49173;43.164;27.786;2024-01-07T08:55:38;99031.44;;;12.65;72.02
63088;BME280;49173;43.164;27.786;2024-01-07T08:58:05;99015.41;;;12.64;72.41
63088;BME280;49173;43.164;27.786;2024-01-07T09:00:35;99001.97;;;12.64;72.88
63088;BME280;49173;43.164;27.786;2024-01-07T09:03:03;99007.34;;;12.64;72.62
63088;BME280;49173;43.164;27.786;2024-01-07T09:05:29;99007.22;;;12.65;72.58
63088;BME280;49173;43.164;27.786;2024-01-07T09:07:56;98995.00;;;12.61;72.49
63088;BME280;49173;43.164;27.786;2024-01-07T09:10:28;98988.03;;;12.59;73.16
63088;BME280;49173;43.164;27.786;2024-01-07T09:12:58;98977.78;;;12.53;73.69
63088;BME280;49173;43.164;27.786;2024-01-07T09:15:29;98980.88;;;12.48;74.20
63088;BME280;49173;43.164;27.786;2024-01-07T09:17:58;98982.72;;;12.48;74.64
63088;BME280;49173;43.164;27.786;2024-01-07T09:20:30;98980.28;;;12.45;75.33
63088;BME280;49173;43.164;27.786;2024-01-07T09:22:56;98970.03;;;12.38;75.45
63088;BME280;49173;43.164;27.786;2024-01-07T09:25:23;98969.31;;;12.36;75.68
63088;BME280;49173;43.164;27.786;2024-01-07T09:27:55;98974.97;;;12.33;76.25
63088;BME280;49173;43.164;27.786;2024-01-07T09:30:21;98967.84;;;12.32;76.26
63088;BME280;49173;43.164;27.786;2024-01-07T09:32:49;98984.00;;;12.32;77.11
63088;BME280;49173;43.164;27.786;2024-01-07T09:35:18;98985.84;;;12.32;77.71
63088;BME280;49173;43.164;27.786;2024-01-07T09:37:49;98990.97;;;12.35;78.39
63088;BME280;49173;43.164;27.786;2024-01-07T09:40:21;98989.16;;;12.35;78.83
63088;BME280;49173;43.164;27.786;2024-01-07T09:42:51;98986.13;;;12.29;78.92
63088;BME280;49173;43.164;27.786;2024-01-07T09:45:18;98991.41;;;12.19;79.36
63088;BME280;49173;43.164;27.786;2024-01-07T09:47:47;98991.78;;;12.15;79.63
63088;BME280;49173;43.164;27.786;2024-01-07T09:50:17;99000.09;;;12.12;79.71
63088;BME280;49173;43.164;27.786;2024-01-07T09:52:53;98978.72;;;12.10;80.20
63088;BME280;49173;43.164;27.786;2024-01-07T09:55:27;98982.53;;;12.07;80.33
63088;BME280;49173;43.164;27.786;2024-01-07T09:57:59;98985.34;;;12.06;80.21
63088;BME280;49173;43.164;27.786;2024-01-07T10:00:27;98984.22;;;12.08;80.52
63088;BME280;49173;43.164;27.786;2024-01-07T10:02:54;98977.50;;;12.14;80.09
63088;BME280;49173;43.164;27.786;2024-01-07T10:05:22;98970.41;;;12.13;79.28
63088;BME280;49173;43.164;27.786;2024-01-07T10:07:48;98962.06;;;12.16;79.88
63088;BME280;49173;43.164;27.786;2024-01-07T10:10:17;98959.66;;;12.13;79.25
63088;BME280;49173;43.164;27.786;2024-01-07T10:12:49;98953.88;;;12.18;79.33
63088;BME280;49173;43.164;27.786;2024-01-07T10:15:21;98953.75;;;12.19;78.93
63088;BME280;49173;43.164;27.786;2024-01-07T10:17:48;98946.28;;;12.23;79.00
63088;BME280;49173;43.164;27.786;2024-01-07T10:20:17;98940.75;;;12.24;78.92
63088;BME280;49173;43.164;27.786;2024-01-07T10:22:51;98930.75;;;12.26;78.55
63088;BME280;49173;43.164;27.786;2024-01-07T10:25:30;98924.94;;;12.31;78.85
63088;BME280;49173;43.164;27.786;2024-01-07T10:28:04;98922.72;;;12.36;78.79
63088;BME280;49173;43.164;27.786;2024-01-07T10:30:31;98917.94;;;12.40;78.87
63088;BME280;49173;43.164;27.786;2024-01-07T10:33:01;98914.28;;;12.41;78.89
63088;BME280;49173;43.164;27.786;2024-01-07T10:35:38;98927.31;;;12.45;78.67
63088;BME280;49173;43.164;27.786;2024-01-07T10:38:10;98931.31;;;12.51;78.26
63088;BME280;49173;43.164;27.786;2024-01-07T10:40:36;98927.94;;;12.49;77.30
63088;BME280;49173;43.164;27.786;2024-01-07T10:43:04;98932.88;;;12.53;77.59
63088;BME280;49173;43.164;27.786;2024-01-07T10:45:33;98925.03;;;12.61;77.89
63088;BME280;49173;43.164;27.786;2024-01-07T10:48:05;98918.56;;;12.74;76.57
63088;BME280;49173;43.164;27.786;2024-01-07T10:50:34;98915.94;;;12.83;75.93
63088;BME280;49173;43.164;27.786;2024-01-07T10:53:07;98906.66;;;12.97;76.32
63088;BME280;49173;43.164;27.786;2024-01-07T10:55:52;98902.59;;;13.12;73.45
63088;BME280;49173;43.164;27.786;2024-01-07T10:58:32;98901.81;;;13.22;73.41
63088;BME280;49173;43.164;27.786;2024-01-07T11:01:09;98892.31;;;13.27;72.33
63088;BME280;49173;43.164;27.786;2024-01-07T11:04:01;98888.94;;;13.35;71.49
63088;BME280;49173;43.164;27.786;2024-01-07T11:06:55;98893.94;;;13.39;71.00
63088;BME280;49173;43.164;27.786;2024-01-07T11:12:11;98871.63;;;13.37;69.80
63088;BME280;49173;43.164;27.786;2024-01-07T11:14:39;98858.59;;;13.33;69.49
63088;BME280;49173;43.164;27.786;2024-01-07T11:17:11;98852.06;;;13.35;70.07
63088;BME280;49173;43.164;27.786;2024-01-07T11:19:51;98848.13;;;13.39;69.47
63088;BME280;49173;43.164;27.786;2024-01-07T11:22:27;98865.53;;;13.45;68.70
63088;BME280;49173;43.164;27.786;2024-01-07T11:24:57;98851.06;;;13.46;68.15
63088;BME280;49173;43.164;27.786;2024-01-07T11:27:30;98857.75;;;13.52;67.56
63088;BME280;49173;43.164;27.786;2024-01-07T11:30:26;98859.19;;;13.56;68.06
63088;BME280;49173;43.164;27.786;2024-01-07T11:33:04;98846.72;;;13.55;68.51
63088;BME280;49173;43.164;27.786;2024-01-07T11:36:06;98838.19;;;13.50;68.37
63088;BME280;49173;43.164;27.786;2024-01-07T11:38:36;98846.13;;;13.51;68.84
63088;BME280;49173;43.164;27.786;2024-01-07T11:41:09;98847.13;;;13.50;68.84
63088;BME280;49173;43.164;27.786;2024-01-07T11:43:56;98835.78;;;13.56;70.64
63088;BME280;49173;43.164;27.786;2024-01-07T11:46:25;98817.34;;;13.61;72.34
63088;BME280;49173;43.164;27.786;2024-01-07T11:48:58;98820.88;;;13.71;72.73
63088;BME280;49173;43.164;27.786;2024-01-07T11:51:29;98810.69;;;13.75;72.58
63088;BME280;49173;43.164;27.786;2024-01-07T11:54:05;98802.16;;;13.80;71.79
63088;BME280;49173;43.164;27.786;2024-01-07T11:56:35;98803.84;;;13.81;69.20
63088;BME280;49173;43.164;27.786;2024-01-07T11:59:07;98795.75;;;13.81;69.25
63088;BME280;49173;43.164;27.786;2024-01-07T12:01:33;98790.53;;;13.89;69.67
63088;BME280;49173;43.164;27.786;2024-01-07T12:04:00;98786.25;;;13.96;70.26
63088;BME280;49173;43.164;27.786;2024-01-07T12:06:29;98795.31;;;14.05;69.19
63088;BME280;49173;43.164;27.786;2024-01-07T12:08:56;98802.69;;;14.12;69.08
63088;BME280;49173;43.164;27.786;2024-01-07T12:11:25;98809.34;;;14.18;69.17
63088;BME280;49173;43.164;27.786;2024-01-07T12:13:51;98803.66;;;14.21;67.87
63088;BME280;49173;43.164;27.786;2024-01-07T12:16:18;98813.72;;;14.28;67.52
63088;BME280;49173;43.164;27.786;2024-01-07T12:18:44;98824.34;;;14.30;67.68
63088;BME280;49173;43.164;27.786;2024-01-07T12:21:18;98811.44;;;14.34;67.39
63088;BME280;49173;43.164;27.786;2024-01-07T12:23:50;98826.47;;;14.36;67.08
63088;BME280;49173;43.164;27.786;2024-01-07T12:26:17;98833.56;;;14.37;66.82
63088;BME280;49173;43.164;27.786;2024-01-07T12:28:58;98828.31;;;14.36;67.02
63088;BME280;49173;43.164;27.786;2024-01-07T12:31:33;98828.78;;;14.31;67.14
63088;BME280;49173;43.164;27.786;2024-01-07T12:34:01;98832.19;;;14.33;67.23
63088;BME280;49173;43.164;27.786;2024-01-07T12:36:30;98818.09;;;14.39;67.17
63088;BME280;49173;43.164;27.786;2024-01-07T12:39:02;98827.59;;;14.43;67.67
63088;BME280;49173;43.164;27.786;2024-01-07T12:41:34;98818.50;;;14.44;68.43
63088;BME280;49173;43.164;27.786;2024-01-07T12:44:03;98832.88;;;14.45;69.51
63088;BME280;49173;43.164;27.786;2024-01-07T12:46:32;98837.00;;;14.49;69.36
63088;BME280;49173;43.164;27.786;2024-01-07T12:49:03;98818.09;;;14.49;67.60
63088;BME280;49173;43.164;27.786;2024-01-07T12:51:30;98822.78;;;14.47;67.53
63088;BME280;49173;43.164;27.786;2024-01-07T12:53:58;98820.50;;;14.42;67.57
63088;BME280;49173;43.164;27.786;2024-01-07T12:56:34;98820.06;;;14.37;67.52
63088;BME280;49173;43.164;27.786;2024-01-07T12:59:05;98819.38;;;14.35;67.50